Time;durP1;ratioP1;P1;durP2;ratioP2;P2;SDS_P1;SDS_P2;PMS_P1;PMS_P2;Temp;Humidity;BMP_temperature;BMP_pressure;BME280_temperature;BME280_humidity;BME280_pressure;Samples;Min_cycle;Max_cycle;Signal;HPM_P1;HPM_P2
2022/03/06 00:00:10;;;;;;;;;;;1.50;99.90;;;;;;5032474;28;19925;-70
2022/03/06 00:02:37;;;;;;;;;;;1.40;99.90;;;;;;5033873;28;20364;-71
2022/03/06 00:05:04;;;;;;;;;;;1.50;99.90;;;;;;5020994;28;19925;-70
2022/03/06 00:07:30;;;;;;;;;;;1.40;99.90;;;;;;5017175;28;20030;-72
2022/03/06 00:09:57;;;;;;;;;;;1.40;99.90;;;;;;5030608;28;20012;-72
2022/03/06 00:12:24;;;;;;;;;;;1.40;99.90;;;;;;5033751;28;19925;-72
2022/03/06 00:14:50;;;;;;;;;;;1.40;99.90;;;;;;5031885;28;20415;-72
2022/03/06 00:17:18;;;;;;;;;;;1.50;99.90;;;;;;5033291;28;19925;-73
2022/03/06 00:19:45;;;;;;;;;;;1.50;99.90;;;;;;5031893;28;19936;-71
2022/03/06 00:22:12;;;;;;;;;;;1.60;99.90;;;;;;5036114;28;19925;-72
2022/03/06 00:24:38;;;;;;;;;;;1.50;99.90;;;;;;5037054;28;19943;-72
2022/03/06 00:27:05;;;;;;;;;;;1.40;99.90;;;;;;5037327;28;19933;-72
2022/03/06 00:29:32;;;;;;;;;;;1.40;99.90;;;;;;5031818;28;19925;-70
2022/03/06 00:31:58;;;;;;;;;;;1.40;99.90;;;;;;5033383;28;20011;-71
2022/03/06 00:34:26;;;;;;;;;;;1.30;99.90;;;;;;5031233;28;20266;-71
2022/03/06 00:36:53;;;;;;;;;;;1.50;99.90;;;;;;5013962;28;20018;-71
2022/03/06 00:39:20;;;;;;;;;;;1.30;99.90;;;;;;5030983;28;19961;-72
2022/03/06 00:41:46;;;;;;;;;;;1.20;99.90;;;;;;5033169;28;20384;-71
2022/03/06 00:44:13;;;;;;;;;;;1.20;99.90;;;;;;5031529;28;20447;-71
2022/03/06 00:46:40;;;;;;;;;;;1.20;99.90;;;;;;5034317;28;19925;-72
2022/03/06 00:49:06;;;;;;;;;;;1.10;99.90;;;;;;5033790;28;19952;-73
2022/03/06 00:51:34;;;;;;;;;;;1.20;99.90;;;;;;5035158;28;20351;-71
2022/03/06 00:54:01;;;;;;;;;;;1.10;99.90;;;;;;5031538;28;20392;-71
2022/03/06 00:56:28;;;;;;;;;;;0.90;99.90;;;;;;5032986;28;20394;-72
2022/03/06 00:58:54;;;;;;;;;;;0.90;99.90;;;;;;5031240;28;19933;-71
2022/03/06 01:01:21;;;;;;;;;;;0.90;99.90;;;;;;5033102;28;19931;-71
2022/03/06 01:03:48;;;;;;;;;;;1.00;99.90;;;;;;5032014;28;19925;-71
2022/03/06 01:06:14;;;;;;;;;;;0.90;99.90;;;;;;5032669;28;20311;-72
2022/03/06 01:08:42;;;;;;;;;;;0.90;99.90;;;;;;5029894;28;19925;-72
2022/03/06 01:11:09;;;;;;;;;;;0.80;99.90;;;;;;5013342;28;19925;-71
2022/03/06 01:13:36;;;;;;;;;;;0.70;99.90;;;;;;5013243;28;19931;-71
2022/03/06 01:16:02;;;;;;;;;;;0.70;99.90;;;;;;5029563;28;19929;-71
2022/03/06 01:18:29;;;;;;;;;;;0.70;99.90;;;;;;5032983;28;19931;-72
2022/03/06 01:20:56;;;;;;;;;;;0.70;99.90;;;;;;5029929;28;19925;-71
2022/03/06 01:23:22;;;;;;;;;;;0.60;99.90;;;;;;5032375;28;19931;-71
2022/03/06 01:25:50;;;;;;;;;;;0.60;99.90;;;;;;5030574;28;19932;-71
2022/03/06 01:28:17;;;;;;;;;;;0.50;99.90;;;;;;5032330;28;20019;-71
2022/03/06 01:30:44;;;;;;;;;;;0.40;99.90;;;;;;5030774;28;19931;-71
2022/03/06 01:33:10;;;;;;;;;;;0.40;99.90;;;;;;5032367;28;19928;-71
2022/03/06 01:35:37;;;;;;;;;;;0.40;99.90;;;;;;5033967;28;19932;-71
2022/03/06 01:38:04;;;;;;;;;;;0.30;99.90;;;;;;5034229;28;19925;-71
2022/03/06 01:40:30;;;;;;;;;;;0.30;99.90;;;;;;5034464;28;19925;-71
2022/03/06 01:42:58;;;;;;;;;;;0.30;99.90;;;;;;5036189;28;19929;-71
2022/03/06 01:45:25;;;;;;;;;;;0.40;99.90;;;;;;5034911;28;19925;-71
2022/03/06 01:47:53;;;;;;;;;;;0.30;99.90;;;;;;5036480;28;20388;-71
2022/03/06 01:50:20;;;;;;;;;;;0.30;99.90;;;;;;5034954;28;19925;-71
2022/03/06 01:52:48;;;;;;;;;;;0.30;99.90;;;;;;5036507;28;20376;-71
2022/03/06 01:55:15;;;;;;;;;;;0.30;99.90;;;;;;5034791;28;20362;-71
2022/03/06 01:57:43;;;;;;;;;;;0.30;99.90;;;;;;5035186;28;19925;-71
2022/03/06 02:00:14;;;;;;;;;;;0.40;99.90;;;;;;5034125;28;19925;-71
2022/03/06 02:02:43;;;;;;;;;;;0.30;99.90;;;;;;5035817;28;19945;-71
2022/03/06 02:05:10;;;;;;;;;;;0.20;99.90;;;;;;5034038;28;19947;-71
2022/03/06 02:07:36;;;;;;;;;;;0.20;99.90;;;;;;5035016;28;19967;-71
2022/03/06 02:10:04;;;;;;;;;;;0.40;99.90;;;;;;5034365;28;19925;-72
2022/03/06 02:12:31;;;;;;;;;;;0.40;99.90;;;;;;5035583;28;19948;-72
2022/03/06 02:14:58;;;;;;;;;;;0.30;99.90;;;;;;5033611;28;19925;-71
2022/03/06 02:17:27;;;;;;;;;;;0.30;99.90;;;;;;5035307;28;19996;-72
2022/03/06 02:19:54;;;;;;;;;;;0.30;99.90;;;;;;5034267;28;20376;-72
2022/03/06 02:22:23;;;;;;;;;;;0.20;99.90;;;;;;5035646;28;20376;-72
2022/03/06 02:24:50;;;;;;;;;;;0.10;99.90;;;;;;5034360;28;19925;-72
2022/03/06 02:27:17;;;;;;;;;;;0.10;99.90;;;;;;5035913;28;20016;-72
2022/03/06 02:29:44;;;;;;;;;;;0.00;99.90;;;;;;5034257;28;19961;-72
2022/03/06 02:32:11;;;;;;;;;;;-0.10;99.90;;;;;;5036108;28;19925;-72
2022/03/06 02:34:38;;;;;;;;;;;0.20;99.90;;;;;;5033666;28;20007;-72
2022/03/06 02:37:05;;;;;;;;;;;0.00;99.90;;;;;;5035575;28;19925;-72
2022/03/06 02:39:33;;;;;;;;;;;-0.10;99.90;;;;;;5028737;28;19925;-71
2022/03/06 02:42:01;;;;;;;;;;;0.00;99.90;;;;;;5034852;28;19932;-71
2022/03/06 02:44:28;;;;;;;;;;;0.00;99.90;;;;;;5032776;28;19925;-71
2022/03/06 02:46:55;;;;;;;;;;;-0.10;99.90;;;;;;5034796;28;19925;-71
2022/03/06 02:49:22;;;;;;;;;;;-0.20;99.90;;;;;;5030491;28;20379;-71
2022/03/06 02:51:48;;;;;;;;;;;-0.20;99.90;;;;;;5036109;28;20410;-71
2022/03/06 02:54:17;;;;;;;;;;;-0.30;99.90;;;;;;5034405;28;19932;-72
2022/03/06 02:56:45;;;;;;;;;;;-0.30;99.90;;;;;;5036263;28;19932;-72
2022/03/06 02:59:11;;;;;;;;;;;-0.20;99.90;;;;;;5034675;28;19967;-71
2022/03/06 03:01:39;;;;;;;;;;;-0.20;99.90;;;;;;5034521;28;20023;-71
2022/03/06 03:04:06;;;;;;;;;;;-0.30;99.90;;;;;;5035144;28;19925;-74
2022/03/06 03:06:33;;;;;;;;;;;-0.30;99.90;;;;;;5035092;28;19931;-72
2022/03/06 03:09:00;;;;;;;;;;;-0.30;99.90;;;;;;5034997;28;19925;-72
2022/03/06 03:11:26;;;;;;;;;;;-0.30;99.90;;;;;;5034664;28;19969;-72
2022/03/06 03:13:54;;;;;;;;;;;-0.40;99.90;;;;;;5032139;28;19929;-72
2022/03/06 03:16:21;;;;;;;;;;;-0.30;99.90;;;;;;5034020;28;19925;-71
2022/03/06 03:18:48;;;;;;;;;;;-0.20;99.90;;;;;;5032069;28;19931;-72
2022/03/06 03:21:14;;;;;;;;;;;-0.20;99.90;;;;;;5034765;28;19925;-71
2022/03/06 03:23:41;;;;;;;;;;;-0.20;99.90;;;;;;5033058;28;19925;-71
2022/03/06 03:26:08;;;;;;;;;;;-0.30;99.90;;;;;;5035245;28;19932;-71
2022/03/06 03:28:34;;;;;;;;;;;-0.40;99.90;;;;;;5034248;28;19932;-71
2022/03/06 03:31:02;;;;;;;;;;;-0.30;99.90;;;;;;5034648;28;19925;-71
2022/03/06 03:33:29;;;;;;;;;;;-0.20;99.90;;;;;;5032760;28;20020;-71
2022/03/06 03:35:56;;;;;;;;;;;-0.30;99.90;;;;;;5033751;28;19925;-71
2022/03/06 03:38:23;;;;;;;;;;;-0.20;99.90;;;;;;5033139;28;19929;-71
2022/03/06 03:40:49;;;;;;;;;;;-0.20;99.90;;;;;;5034751;28;19931;-71
2022/03/06 03:43:16;;;;;;;;;;;-0.10;99.90;;;;;;5034171;28;20384;-71
2022/03/06 03:45:43;;;;;;;;;;;-0.20;99.90;;;;;;5031584;28;20380;-71
2022/03/06 03:48:11;;;;;;;;;;;-0.20;99.90;;;;;;5033752;28;19925;-71
2022/03/06 03:50:37;;;;;;;;;;;-0.20;99.90;;;;;;5032985;28;19925;-71
2022/03/06 03:53:04;;;;;;;;;;;-0.30;99.90;;;;;;5033373;28;20023;-71
2022/03/06 03:55:31;;;;;;;;;;;-0.30;99.90;;;;;;5031761;28;19925;-71
2022/03/06 03:57:58;;;;;;;;;;;-0.20;99.90;;;;;;5033740;28;19926;-76
2022/03/06 04:00:24;;;;;;;;;;;-0.20;99.90;;;;;;5034128;28;19925;-73
2022/03/06 04:02:51;;;;;;;;;;;-0.30;99.90;;;;;;5040358;28;20024;-72
2022/03/06 04:05:19;;;;;;;;;;;-0.20;99.90;;;;;;5033820;28;20019;-71
2022/03/06 04:07:46;;;;;;;;;;;-0.30;99.90;;;;;;5034881;28;19947;-72
2022/03/06 04:10:12;;;;;;;;;;;-0.20;99.90;;;;;;5032582;28;19947;-72
2022/03/06 04:12:39;;;;;;;;;;;-0.20;99.90;;;;;;5033635;28;19968;-72
2022/03/06 04:15:06;;;;;;;;;;;-0.10;99.90;;;;;;5031686;28;19925;-71
2022/03/06 04:17:33;;;;;;;;;;;-0.20;99.90;;;;;;5033412;28;20028;-72
2022/03/06 04:19:59;;;;;;;;;;;-0.30;99.90;;;;;;5032078;28;19929;-72
2022/03/06 04:22:28;;;;;;;;;;;-0.40;99.90;;;;;;5033505;28;20020;-72
2022/03/06 04:24:54;;;;;;;;;;;-0.40;99.90;;;;;;5031547;28;19932;-72
2022/03/06 04:27:21;;;;;;;;;;;-0.40;99.90;;;;;;5033494;28;19925;-72
2022/03/06 04:29:48;;;;;;;;;;;-0.50;99.90;;;;;;5031867;28;20559;-72
2022/03/06 04:32:14;;;;;;;;;;;-0.50;99.90;;;;;;5033501;28;19925;-71
2022/03/06 04:34:41;;;;;;;;;;;-0.50;99.90;;;;;;5030801;28;19925;-72
2022/03/06 04:37:07;;;;;;;;;;;-0.50;99.90;;;;;;5033201;28;19999;-72
2022/03/06 04:39:35;;;;;;;;;;;-0.50;99.90;;;;;;5031822;28;19972;-72
2022/03/06 04:42:02;;;;;;;;;;;-0.40;99.90;;;;;;5032786;28;19931;-71
2022/03/06 04:44:30;;;;;;;;;;;-0.40;99.90;;;;;;5033406;28;19925;-72
2022/03/06 04:46:57;;;;;;;;;;;-0.40;99.90;;;;;;5034500;28;19927;-72
2022/03/06 04:49:23;;;;;;;;;;;-0.40;99.90;;;;;;5033952;28;20015;-75
2022/03/06 04:51:50;;;;;;;;;;;-0.40;99.90;;;;;;5035771;28;19931;-72
2022/03/06 04:54:17;;;;;;;;;;;-0.50;99.90;;;;;;5031530;28;20015;-72
2022/03/06 04:56:45;;;;;;;;;;;-0.60;99.90;;;;;;5032800;28;19932;-72
2022/03/06 04:59:12;;;;;;;;;;;-0.60;99.90;;;;;;5031337;28;19927;-72
2022/03/06 05:01:38;;;;;;;;;;;-0.60;99.90;;;;;;5032480;28;19932;-72
2022/03/06 05:04:05;;;;;;;;;;;-0.50;99.90;;;;;;5030755;28;20018;-72
2022/03/06 05:06:32;;;;;;;;;;;-0.60;99.90;;;;;;5032826;28;19972;-72
2022/03/06 05:08:59;;;;;;;;;;;-0.60;99.90;;;;;;5030523;28;20020;-72
2022/03/06 05:11:25;;;;;;;;;;;-0.50;99.90;;;;;;5031785;28;20351;-71
2022/03/06 05:13:53;;;;;;;;;;;-0.50;99.90;;;;;;5030823;28;19933;-72
2022/03/06 05:16:20;;;;;;;;;;;-0.50;99.90;;;;;;5032656;28;19931;-71
2022/03/06 05:18:47;;;;;;;;;;;-0.50;99.90;;;;;;5030460;28;20459;-72
2022/03/06 05:21:13;;;;;;;;;;;-0.50;99.90;;;;;;5030418;28;19932;-71
2022/03/06 05:23:40;;;;;;;;;;;-0.50;99.90;;;;;;5030781;28;19925;-72
2022/03/06 05:26:07;;;;;;;;;;;-0.50;99.90;;;;;;5012777;28;20445;-72
2022/03/06 05:28:34;;;;;;;;;;;-0.50;99.90;;;;;;5012223;28;19956;-71
2022/03/06 05:31:03;;;;;;;;;;;-0.50;99.90;;;;;;5031531;28;19971;-72
2022/03/06 05:33:29;;;;;;;;;;;-0.50;99.90;;;;;;5032664;28;19929;-72
2022/03/06 05:35:56;;;;;;;;;;;-0.60;99.90;;;;;;5030938;28;19980;-72
2022/03/06 05:38:23;;;;;;;;;;;-0.60;99.90;;;;;;5032131;28;19925;-72
2022/03/06 05:40:49;;;;;;;;;;;-0.60;99.90;;;;;;5029969;28;20344;-72
2022/03/06 05:43:16;;;;;;;;;;;-0.50;99.90;;;;;;5030894;28;20325;-72
2022/03/06 05:45:44;;;;;;;;;;;-0.60;99.90;;;;;;5030626;28;20410;-72
2022/03/06 05:48:12;;;;;;;;;;;-0.70;99.90;;;;;;5032711;28;20028;-71
2022/03/06 05:50:39;;;;;;;;;;;-0.60;99.90;;;;;;5030860;28;20354;-71
2022/03/06 05:53:06;;;;;;;;;;;-0.70;99.90;;;;;;5035672;28;19972;-71
2022/03/06 05:55:32;;;;;;;;;;;-0.70;99.90;;;;;;5034347;28;20012;-71
2022/03/06 05:57:59;;;;;;;;;;;-0.70;99.90;;;;;;5034239;28;20368;-71
2022/03/06 06:00:26;;;;;;;;;;;-0.80;99.90;;;;;;5031564;28;19932;-72
2022/03/06 06:02:52;;;;;;;;;;;-0.70;99.90;;;;;;5032654;28;19953;-72
2022/03/06 06:05:22;;;;;;;;;;;-0.60;99.90;;;;;;5031354;28;19971;-72
2022/03/06 06:07:51;;;;;;;;;;;-0.70;99.90;;;;;;5033527;28;19968;-72
2022/03/06 06:10:18;;;;;;;;;;;-0.70;99.90;;;;;;5030272;28;19925;-71
2022/03/06 06:12:46;;;;;;;;;;;-0.70;99.90;;;;;;5031413;28;19948;-73
2022/03/06 06:15:12;;;;;;;;;;;-0.70;99.90;;;;;;5030739;28;20008;-73
2022/03/06 06:17:51;;;;;;;;;;;;;;;;;;;;;
2022/03/06 06:20:18;;;;;;;;;;;-0.60;99.90;;;;;;5031432;28;19925;-72
2022/03/06 06:22:46;;;;;;;;;;;-0.70;99.90;;;;;;5036724;28;20392;-72
2022/03/06 06:25:12;;;;;;;;;;;-0.70;99.90;;;;;;5036209;28;19990;-72
2022/03/06 06:27:39;;;;;;;;;;;-0.90;99.90;;;;;;5036131;28;20336;-72
2022/03/06 06:30:07;;;;;;;;;;;-0.90;99.90;;;;;;5033113;28;19925;-72
2022/03/06 06:32:34;;;;;;;;;;;-0.90;99.90;;;;;;5034909;28;19925;-72
2022/03/06 06:35:00;;;;;;;;;;;-0.90;99.90;;;;;;5033887;28;20012;-72
2022/03/06 06:37:30;;;;;;;;;;;-0.90;99.90;;;;;;5035707;28;20032;-73
2022/03/06 06:39:59;;;;;;;;;;;-0.90;99.90;;;;;;5034346;28;19932;-72
2022/03/06 06:42:26;;;;;;;;;;;-0.80;99.90;;;;;;5033330;28;19925;-72
2022/03/06 06:44:52;;;;;;;;;;;-0.80;99.90;;;;;;5030869;28;20419;-72
2022/03/06 06:47:19;;;;;;;;;;;-0.80;99.90;;;;;;5035928;28;19925;-72
2022/03/06 06:49:46;;;;;;;;;;;-0.70;99.90;;;;;;5033748;28;19932;-72
2022/03/06 06:52:13;;;;;;;;;;;-0.80;99.90;;;;;;5035528;28;20371;-72
2022/03/06 06:54:43;;;;;;;;;;;-0.80;99.90;;;;;;5033256;28;20321;-72
2022/03/06 06:57:11;;;;;;;;;;;-0.80;99.90;;;;;;5035097;28;19925;-72
2022/03/06 06:59:37;;;;;;;;;;;-0.70;99.90;;;;;;5033730;28;19932;-71
2022/03/06 07:02:04;;;;;;;;;;;-0.60;99.90;;;;;;5035175;28;19948;-71
2022/03/06 07:04:31;;;;;;;;;;;-0.70;99.90;;;;;;5032174;28;19929;-72
2022/03/06 07:06:58;;;;;;;;;;;-0.60;99.90;;;;;;5034743;28;20090;-72
2022/03/06 07:09:24;;;;;;;;;;;-0.60;99.90;;;;;;5033767;28;19925;-72
2022/03/06 07:11:51;;;;;;;;;;;-0.60;99.90;;;;;;5033795;28;19960;-72
2022/03/06 07:14:19;;;;;;;;;;;-0.50;99.90;;;;;;5033467;28;19931;-72
2022/03/06 07:16:46;;;;;;;;;;;-0.60;99.90;;;;;;5035009;28;19931;-72
2022/03/06 07:19:12;;;;;;;;;;;-0.50;99.90;;;;;;5032742;28;20355;-70
2022/03/06 07:21:39;;;;;;;;;;;-0.40;99.90;;;;;;5036888;28;19964;-73
2022/03/06 07:24:06;;;;;;;;;;;-0.40;99.90;;;;;;5031840;28;19969;-70
2022/03/06 07:26:33;;;;;;;;;;;-0.30;99.90;;;;;;5016399;28;20032;-71
2022/03/06 07:29:00;;;;;;;;;;;-0.30;99.90;;;;;;5017351;28;20008;-72
2022/03/06 07:31:28;;;;;;;;;;;-0.20;99.90;;;;;;5033270;28;19980;-71
2022/03/06 07:33:54;;;;;;;;;;;-0.20;99.90;;;;;;5036210;28;19929;-71
2022/03/06 07:36:21;;;;;;;;;;;-0.20;99.90;;;;;;5040292;28;19929;-71
2022/03/06 07:38:48;;;;;;;;;;;-0.20;99.90;;;;;;5035136;28;19925;-72
2022/03/06 07:41:14;;;;;;;;;;;-0.20;99.90;;;;;;5031940;28;20292;-72
2022/03/06 07:43:41;;;;;;;;;;;-0.10;99.90;;;;;;5034102;28;20380;-77
2022/03/06 07:46:08;;;;;;;;;;;-0.10;99.90;;;;;;5034041;28;20008;-76
2022/03/06 07:48:36;;;;;;;;;;;0.10;99.90;;;;;;5035462;28;19931;-75
2022/03/06 07:51:03;;;;;;;;;;;0.20;99.90;;;;;;5036675;28;19955;-74
2022/03/06 07:53:29;;;;;;;;;;;0.20;99.90;;;;;;5034283;28;19931;-72
2022/03/06 07:55:56;;;;;;;;;;;0.20;99.90;;;;;;5031977;28;19931;-72
2022/03/06 07:58:23;;;;;;;;;;;0.20;99.90;;;;;;5033842;28;19991;-71
2022/03/06 08:00:50;;;;;;;;;;;0.30;99.90;;;;;;5032546;28;20004;-73
2022/03/06 08:03:16;;;;;;;;;;;0.50;99.90;;;;;;5033923;28;20016;-72
2022/03/06 08:05:45;;;;;;;;;;;1.10;99.90;;;;;;5030156;28;20010;-72
2022/03/06 08:08:11;;;;;;;;;;;1.50;99.90;;;;;;5032154;28;19936;-72
2022/03/06 08:10:38;;;;;;;;;;;2.40;98.40;;;;;;5031837;28;19929;-71
2022/03/06 08:13:05;;;;;;;;;;;2.40;96.70;;;;;;5033666;28;19979;-72
2022/03/06 08:15:31;;;;;;;;;;;2.60;95.50;;;;;;5032195;28;20003;-72
2022/03/06 08:17:58;;;;;;;;;;;2.60;94.60;;;;;;5034146;28;19947;-71
2022/03/06 08:20:25;;;;;;;;;;;2.70;94.70;;;;;;5032311;28;19929;-72
2022/03/06 08:22:53;;;;;;;;;;;2.60;94.80;;;;;;5034705;28;19929;-72
2022/03/06 08:25:21;;;;;;;;;;;3.20;93.50;;;;;;5032180;28;19983;-72
2022/03/06 08:27:47;;;;;;;;;;;2.70;93.50;;;;;;5033564;28;19926;-72
2022/03/06 08:30:16;;;;;;;;;;;2.70;93.10;;;;;;5031172;28;21017;-72
2022/03/06 08:32:43;;;;;;;;;;;2.40;93.40;;;;;;5033605;28;20012;-71
2022/03/06 08:35:10;;;;;;;;;;;2.50;94.20;;;;;;5031917;28;19971;-73
2022/03/06 08:37:37;;;;;;;;;;;3.00;93.50;;;;;;5032619;28;20008;-72
2022/03/06 08:40:06;;;;;;;;;;;3.30;92.40;;;;;;5032286;28;19932;-72
2022/03/06 08:42:32;;;;;;;;;;;3.70;91.80;;;;;;5032984;28;20384;-72
2022/03/06 08:44:59;;;;;;;;;;;3.20;91.80;;;;;;5031583;28;20308;-71
2022/03/06 08:47:26;;;;;;;;;;;2.90;92.50;;;;;;5033183;28;19932;-72
2022/03/06 08:49:53;;;;;;;;;;;3.40;91.00;;;;;;5031347;28;19929;-72
2022/03/06 08:52:19;;;;;;;;;;;3.60;91.40;;;;;;5032889;28;20399;-71
2022/03/06 08:54:46;;;;;;;;;;;3.30;90.80;;;;;;5031480;28;20016;-72
2022/03/06 08:57:14;;;;;;;;;;;3.40;91.20;;;;;;5033020;28;20008;-72
2022/03/06 08:59:40;;;;;;;;;;;3.60;89.10;;;;;;5031412;28;19931;-72
2022/03/06 09:02:07;;;;;;;;;;;3.90;86.50;;;;;;5033269;28;19964;-72
2022/03/06 09:04:34;;;;;;;;;;;3.70;85.70;;;;;;5030565;28;20364;-73
2022/03/06 09:07:01;;;;;;;;;;;3.00;88.70;;;;;;5032059;28;20299;-72
2022/03/06 09:09:28;;;;;;;;;;;3.70;87.70;;;;;;5030935;28;20380;-72
2022/03/06 09:11:54;;;;;;;;;;;3.80;85.30;;;;;;5033401;28;20407;-72
2022/03/06 09:14:22;;;;;;;;;;;3.50;85.00;;;;;;5031365;28;20410;-72
2022/03/06 09:16:49;;;;;;;;;;;3.70;87.30;;;;;;5032938;28;19961;-72
2022/03/06 09:19:16;;;;;;;;;;;3.60;87.40;;;;;;5030532;28;20303;-72
2022/03/06 09:21:43;;;;;;;;;;;3.70;84.30;;;;;;5032895;28;19925;-72
2022/03/06 09:24:10;;;;;;;;;;;3.40;84.50;;;;;;5030502;28;19929;-72
2022/03/06 09:26:37;;;;;;;;;;;3.40;84.20;;;;;;5027765;28;19929;-72
2022/03/06 09:29:05;;;;;;;;;;;3.70;85.00;;;;;;5030829;28;19968;-72
2022/03/06 09:31:33;;;;;;;;;;;4.00;83.90;;;;;;5032584;28;19936;-72
2022/03/06 09:34:00;;;;;;;;;;;4.10;84.70;;;;;;5030971;28;19932;-72
2022/03/06 09:36:26;;;;;;;;;;;4.50;81.20;;;;;;5032571;28;19925;-72
2022/03/06 09:38:53;;;;;;;;;;;4.60;79.50;;;;;;5024476;28;20056;-72
2022/03/06 09:41:22;;;;;;;;;;;4.90;77.50;;;;;;5032847;28;19925;-72
2022/03/06 09:43:49;;;;;;;;;;;5.00;76.80;;;;;;5030934;28;19932;-72
2022/03/06 09:46:15;;;;;;;;;;;5.20;75.30;;;;;;5032284;28;19925;-72
2022/03/06 09:48:43;;;;;;;;;;;4.80;73.30;;;;;;5030727;28;19929;-71
2022/03/06 09:51:10;;;;;;;;;;;3.60;75.10;;;;;;5012794;28;19932;-71
2022/03/06 09:53:37;;;;;;;;;;;3.60;79.40;;;;;;5012999;28;20025;-71
2022/03/06 09:56:04;;;;;;;;;;;3.40;80.30;;;;;;5033006;28;19932;-71
2022/03/06 09:58:31;;;;;;;;;;;3.40;80.80;;;;;;5035433;28;19925;-71
2022/03/06 10:00:58;;;;;;;;;;;3.20;80.60;;;;;;5034657;28;19925;-71
2022/03/06 10:03:25;;;;;;;;;;;3.30;79.40;;;;;;5037766;28;19925;-76
2022/03/06 10:05:53;;;;;;;;;;;3.50;78.00;;;;;;5035302;28;19925;-72
2022/03/06 10:08:21;;;;;;;;;;;3.70;78.90;;;;;;5034507;28;20303;-72
2022/03/06 10:10:49;;;;;;;;;;;3.70;78.90;;;;;;5032762;28;19925;-71
2022/03/06 10:13:20;;;;;;;;;;;3.80;81.60;;;;;;5032235;28;20015;-71
2022/03/06 10:16:07;;;;;;;;;;;3.70;78.30;;;;;;5034158;28;19979;-72
2022/03/06 10:18:34;;;;;;;;;;;3.80;79.10;;;;;;5034788;28;20355;-71
2022/03/06 10:21:04;;;;;;;;;;;3.90;78.50;;;;;;5037423;28;19925;-71
2022/03/06 10:23:31;;;;;;;;;;;4.00;78.90;;;;;;5037141;28;19940;-75
2022/03/06 10:26:01;;;;;;;;;;;4.20;77.70;;;;;;5035670;28;19925;-71
2022/03/06 10:28:28;;;;;;;;;;;4.20;75.80;;;;;;5035619;28;20008;-71
2022/03/06 10:30:54;;;;;;;;;;;4.10;74.60;;;;;;5032729;28;20395;-72
2022/03/06 10:33:22;;;;;;;;;;;4.20;75.10;;;;;;5035403;28;20017;-71
2022/03/06 10:35:50;;;;;;;;;;;4.10;74.60;;;;;;5034577;28;19925;-71
2022/03/06 10:38:19;;;;;;;;;;;4.20;75.20;;;;;;5035112;28;19925;-71
2022/03/06 10:40:51;;;;;;;;;;;4.20;75.40;;;;;;5034439;28;19925;-72
2022/03/06 10:43:19;;;;;;;;;;;4.10;72.90;;;;;;5035319;28;19975;-71
2022/03/06 10:45:46;;;;;;;;;;;4.30;75.60;;;;;;5035591;28;19932;-74
2022/03/06 10:48:13;;;;;;;;;;;4.30;72.80;;;;;;5036668;28;20299;-77
2022/03/06 10:50:40;;;;;;;;;;;4.40;74.50;;;;;;5033563;28;20392;-72
2022/03/06 10:53:21;;;;;;;;;;;4.50;73.10;;;;;;5038143;28;19972;-73
2022/03/06 10:55:48;;;;;;;;;;;4.70;70.70;;;;;;5036490;28;19948;-72
2022/03/06 10:58:15;;;;;;;;;;;4.70;71.40;;;;;;5036237;28;20401;-72
2022/03/06 11:00:42;;;;;;;;;;;4.70;70.20;;;;;;5033792;28;19924;-72
2022/03/06 11:03:12;;;;;;;;;;;4.70;66.50;;;;;;5035739;28;19933;-72
2022/03/06 11:05:41;;;;;;;;;;;4.80;66.80;;;;;;5033462;28;19925;-72
2022/03/06 11:08:09;;;;;;;;;;;4.80;67.40;;;;;;5037526;28;19932;-74
2022/03/06 11:10:39;;;;;;;;;;;5.00;64.50;;;;;;5039144;28;19979;-73
2022/03/06 11:13:06;;;;;;;;;;;5.20;65.90;;;;;;5036947;28;20384;-71
2022/03/06 11:15:35;;;;;;;;;;;5.30;62.00;;;;;;5034289;28;20028;-72
2022/03/06 11:18:02;;;;;;;;;;;5.20;60.70;;;;;;5035451;28;20423;-72
2022/03/06 11:20:29;;;;;;;;;;;5.10;60.70;;;;;;5031617;28;19925;-72
2022/03/06 11:22:58;;;;;;;;;;;5.10;60.30;;;;;;5034636;28;20012;-72
2022/03/06 11:25:28;;;;;;;;;;;5.20;59.30;;;;;;5032949;28;20007;-72
2022/03/06 11:28:10;;;;;;;;;;;5.30;58.50;;;;;;5034883;28;19925;-72
2022/03/06 11:30:36;;;;;;;;;;;5.30;58.30;;;;;;5032668;28;20015;-72
2022/03/06 11:33:05;;;;;;;;;;;5.40;57.00;;;;;;5034025;28;19939;-72
2022/03/06 11:35:34;;;;;;;;;;;5.70;57.50;;;;;;5031546;28;19968;-71
2022/03/06 11:38:01;;;;;;;;;;;5.50;55.70;;;;;;5014889;28;20022;-72
2022/03/06 11:40:38;;;;;;;;;;;5.60;56.40;;;;;;5029555;28;20365;-72
2022/03/06 11:43:07;;;;;;;;;;;5.40;55.10;;;;;;5033200;28;19983;-73
2022/03/06 11:45:44;;;;;;;;;;;5.40;54.80;;;;;;5032167;28;20389;-72
2022/03/06 11:48:12;;;;;;;;;;;5.60;54.10;;;;;;5034112;28;20103;-71
2022/03/06 11:50:38;;;;;;;;;;;5.70;53.00;;;;;;5032609;28;19971;-73
2022/03/06 11:53:19;;;;;;;;;;;5.80;53.40;;;;;;5034219;28;19925;-72
2022/03/06 11:55:47;;;;;;;;;;;5.90;52.40;;;;;;5032611;28;19971;-72
2022/03/06 11:58:15;;;;;;;;;;;5.70;52.50;;;;;;5033144;28;19925;-71
2022/03/06 12:00:48;;;;;;;;;;;5.60;52.00;;;;;;5032084;28;20387;-72
2022/03/06 12:03:15;;;;;;;;;;;5.80;53.40;;;;;;5034414;28;19972;-70
2022/03/06 12:05:45;;;;;;;;;;;6.00;51.80;;;;;;5032397;28;19926;-72
2022/03/06 12:08:12;;;;;;;;;;;6.10;51.40;;;;;;5034001;28;20277;-72
2022/03/06 12:10:39;;;;;;;;;;;6.20;50.10;;;;;;5032883;28;19988;-72
2022/03/06 12:13:16;;;;;;;;;;;6.10;50.90;;;;;;5031896;28;19931;-72
2022/03/06 12:16:00;;;;;;;;;;;6.00;50.90;;;;;;5033068;28;19925;-71
2022/03/06 12:18:27;;;;;;;;;;;6.10;50.60;;;;;;5031553;28;20247;-71
2022/03/06 12:20:53;;;;;;;;;;;6.30;49.50;;;;;;5032457;28;20435;-71
2022/03/06 12:23:22;;;;;;;;;;;6.20;48.90;;;;;;5033886;28;20447;-71
2022/03/06 12:25:51;;;;;;;;;;;6.20;48.80;;;;;;5031889;28;20015;-72
2022/03/06 12:28:20;;;;;;;;;;;6.00;49.40;;;;;;5034146;28;19931;-71
2022/03/06 12:30:48;;;;;;;;;;;6.10;47.60;;;;;;5033101;28;19925;-72
2022/03/06 12:33:32;;;;;;;;;;;6.40;48.80;;;;;;5035739;28;20008;-72
2022/03/06 12:36:12;;;;;;;;;;;6.60;47.70;;;;;;5033615;28;20265;-72
2022/03/06 12:38:39;;;;;;;;;;;6.60;46.70;;;;;;5032479;28;20015;-71
2022/03/06 12:41:06;;;;;;;;;;;6.60;46.30;;;;;;5033141;28;19932;-71
2022/03/06 12:43:33;;;;;;;;;;;6.40;46.80;;;;;;5031493;28;19925;-73
2022/03/06 12:46:02;;;;;;;;;;;6.50;44.40;;;;;;5032940;28;19931;-72
2022/03/06 12:48:29;;;;;;;;;;;6.30;46.40;;;;;;5033545;28;19925;-71
2022/03/06 12:50:55;;;;;;;;;;;6.40;43.70;;;;;;5032348;28;19973;-71
2022/03/06 12:53:22;;;;;;;;;;;6.50;44.20;;;;;;5033185;28;19925;-71
2022/03/06 12:55:56;;;;;;;;;;;6.70;43.60;;;;;;5031159;28;19971;-71
2022/03/06 12:58:23;;;;;;;;;;;6.80;43.60;;;;;;5033575;28;19925;-71
2022/03/06 13:00:50;;;;;;;;;;;6.90;42.20;;;;;;5032484;28;20008;-73
2022/03/06 13:03:19;;;;;;;;;;;6.70;42.00;;;;;;5034594;28;20327;-73
2022/03/06 13:05:45;;;;;;;;;;;6.60;42.50;;;;;;5031812;28;19925;-71
2022/03/06 13:08:15;;;;;;;;;;;6.80;42.20;;;;;;5034626;28;20015;-72
2022/03/06 13:10:42;;;;;;;;;;;6.50;41.00;;;;;;5031654;28;19931;-71
2022/03/06 13:13:08;;;;;;;;;;;6.10;42.50;;;;;;5032170;28;19935;-72
2022/03/06 13:15:36;;;;;;;;;;;6.40;43.50;;;;;;5031292;28;20019;-72
2022/03/06 13:18:04;;;;;;;;;;;6.90;43.80;;;;;;5032571;28;19929;-73
2022/03/06 13:20:35;;;;;;;;;;;6.80;43.30;;;;;;5029515;28;19925;-72
2022/03/06 13:23:02;;;;;;;;;;;6.80;41.40;;;;;;5032827;28;19925;-71
2022/03/06 13:25:29;;;;;;;;;;;6.80;41.90;;;;;;5031446;28;19931;-71
2022/03/06 13:27:56;;;;;;;;;;;6.60;39.20;;;;;;5032756;28;19925;-72
2022/03/06 13:30:24;;;;;;;;;;;6.30;41.50;;;;;;5036287;28;19925;-71
2022/03/06 13:32:51;;;;;;;;;;;6.20;42.70;;;;;;5039795;28;19979;-71
2022/03/06 13:35:28;;;;;;;;;;;6.40;41.20;;;;;;5035235;28;19948;-72
2022/03/06 13:37:57;;;;;;;;;;;6.50;40.80;;;;;;5039029;28;19932;-72
2022/03/06 13:40:24;;;;;;;;;;;6.60;40.00;;;;;;5036769;28;19932;-72
2022/03/06 13:42:54;;;;;;;;;;;6.60;39.80;;;;;;5036254;28;19925;-72
2022/03/06 13:45:21;;;;;;;;;;;6.60;40.10;;;;;;5038746;28;19926;-72
2022/03/06 13:47:48;;;;;;;;;;;7.00;41.00;;;;;;5036636;28;20517;-72
2022/03/06 13:50:18;;;;;;;;;;;6.90;40.50;;;;;;5039269;28;20012;-73
2022/03/06 13:52:45;;;;;;;;;;;6.90;39.70;;;;;;5036448;28;19925;-72
2022/03/06 13:55:14;;;;;;;;;;;6.70;40.50;;;;;;5036136;28;19979;-71
2022/03/06 13:57:58;;;;;;;;;;;6.80;40.00;;;;;;5033058;28;20012;-75
2022/03/06 14:00:26;;;;;;;;;;;7.20;38.90;;;;;;5033890;28;20376;-72
2022/03/06 14:03:00;;;;;;;;;;;6.80;40.00;;;;;;5034446;28;19929;-76
2022/03/06 14:05:27;;;;;;;;;;;6.80;39.70;;;;;;5032185;28;19932;-73
2022/03/06 14:07:54;;;;;;;;;;;6.60;39.50;;;;;;5033218;28;20000;-72
2022/03/06 14:10:35;;;;;;;;;;;6.60;39.50;;;;;;5034056;28;20279;-72
2022/03/06 14:13:03;;;;;;;;;;;6.90;39.40;;;;;;5018533;28;20320;-72
2022/03/06 14:15:33;;;;;;;;;;;7.20;41.00;;;;;;5034033;28;19925;-72
2022/03/06 14:18:00;;;;;;;;;;;7.20;41.70;;;;;;5035833;28;20015;-72
2022/03/06 14:20:27;;;;;;;;;;;6.70;41.20;;;;;;5037306;28;20398;-72
2022/03/06 14:22:53;;;;;;;;;;;6.40;40.90;;;;;;5035776;28;20008;-72
2022/03/06 14:25:20;;;;;;;;;;;6.30;41.00;;;;;;5036914;28;19925;-72
2022/03/06 14:27:47;;;;;;;;;;;6.20;40.50;;;;;;5038781;28;19965;-72